ハバロフスク の空港の天気 - METARとTAF

ハバロフスク空港 ( UHHH / KHV ) - ロシア ハバロフスク
飛行場実況気象(Metar)
観測時間07/16 16:00 VLAT (07/16 06:00 UTC)
風向・風速北 4m/s
視程10km以上
天気現象
全天の8割程度の雲 雲底高度 910m
気温27℃
湿度74%
気圧1005hPa
METARUHHH 160600Z 01004MPS 340V040 9999 BKN030CB 27/22 Q1005 R23L/090060 NOSIG RMK QFE748/0997
過去の天気等 Google飛行場航空写真 Wunderground天気予報

過去48時間のMETAR

飛行場予報(TAF)
発表時間: 7/16 14:48 VLAT (7/16 04:48 UTC)
予報対象時間: 16日16時 VLAT ~ 17日22時 VLAT
風向・風速北東 3m/s
視程10km以上
全天の4割程度の積乱雲 雲底高度 610m
16日16時 VLAT ~ 16日24時 VLAT に一時的に
風向・風速南南東 3m/s
視程3000m
天気現象弱い雷雨
全天の4割程度の雲 雲底高度 210m
全天の8割程度の積乱雲 雲底高度 610m
17日0時 VLAT ~ 17日2時 VLAT に徐々に
視程2000m
天気現象もや
全天の4割程度の雲 雲底高度 180m
全天の4割程度の雲 雲底高度 610m
17日2時 VLAT ~ 17日8時 VLAT に一時的に
視程400m
天気現象
全天を覆う雲 鉛直視程 90m
17日9時 VLAT から
風向・風速東北東 3m/s
視程10km以上
全天の4割程度の積乱雲 雲底高度 610m
17日11時 VLAT ~ 17日19時 VLAT に一時的に
風向・風速南南東 3m/s
視程4000m
天気現象弱いしゅう雨
TAF UHHH 160448Z 1606/1712 04003MPS 9999 SCT020CB
TEMPO 1606/1614 15003MPS 3000 -TSRA SCT007 BKN020CB
BECMG 1614/1616 2000 BR SCT006 SCT020
TEMPO 1616/1622 0400 FG VV003
FM162300 06003MPS 9999 SCT020CB
TEMPO 1701/1709 16003MPS 4000 -SHRA